CheckWX is a tool to help pilots better visualize weather data.  It is not intended as a substitute for an official pre-flight weather briefing.

12:27:35 UTC

LFML TAF
Marseille Provence Airport
Marseille, France
TAF LFML 220800Z 2209/2315 VRB03KT CAVOK TX22/2214Z TN07/2305Z BECMG 2209/2210 26007KT BECMG 2217/2219 VRB03KT TEMPO 2221/2306 14005KT BECMG 2308/2310 26007KT

Mar-22@
09:00 UTC

Mar-22 @ 09:00 UTC

Mar-23@
15:00 UTC

Mar-23 @ 15:00 UTC

TAF LFML 220800Z 2209/2315 VRB03KT CAVOK TX22/2214Z TN07/2305Z
Wind
  • Variable at 3 KTS
Cloud Levels
  • No significant clouds

Mar-22@
09:00 UTC

Mar-22 @ 09:00 UTC

Mar-22@
17:00 UTC

Mar-22 @ 17:00 UTC

BECMG 2209/2210 26007KT

Becoming

Becoming Conditions expected by Fri, Mar 22, 2019 @ 10:00 UTC

Wind
  • 260° at 7 KTS
Cloud Levels
  • No significant clouds

Mar-22@
17:00 UTC

Mar-22 @ 17:00 UTC

Mar-23@
08:00 UTC

Mar-23 @ 08:00 UTC

BECMG 2217/2219 VRB03KT

Becoming

Becoming Conditions expected by Fri, Mar 22, 2019 @ 19:00 UTC

Wind
  • Variable at 3 KTS
Cloud Levels
  • No significant clouds

Mar-22@
21:00 UTC

Mar-22 @ 21:00 UTC

Mar-23@
06:00 UTC

Mar-23 @ 06:00 UTC

TEMPO 2221/2306 14005KT

Temporary

Temporary Changes expected for less than half the time period

Wind
  • 140° at 5 KTS

Mar-23@
08:00 UTC

Mar-23 @ 08:00 UTC

Mar-23@
15:00 UTC

Mar-23 @ 15:00 UTC

BECMG 2308/2310 26007KT

Becoming

Becoming Conditions expected by Sat, Mar 23, 2019 @ 10:00 UTC

Wind
  • 260° at 7 KTS
Cloud Levels
  • No significant clouds